createdAt,value
2019-02-06T00:02:00.440Z,95393.03
2019-02-06T00:04:31.692Z,95383.75
2019-02-06T00:07:03.333Z,95392.20
2019-02-06T00:09:34.832Z,95386.07
2019-02-06T00:12:06.350Z,95385.74
2019-02-06T00:14:37.716Z,95382.55
2019-02-06T00:17:09.392Z,95384.47
2019-02-06T00:19:41.057Z,95387.41
2019-02-06T00:22:12.495Z,95386.28
2019-02-06T00:24:44.180Z,95381.04
2019-02-06T00:27:15.822Z,95393.50
2019-02-06T00:29:47.317Z,95391.24
2019-02-06T00:32:18.846Z,95400.33
2019-02-06T00:34:50.466Z,95392.47
2019-02-06T00:37:21.976Z,95378.58
2019-02-06T00:39:53.318Z,95380.57
2019-02-06T00:42:24.555Z,95374.37
2019-02-06T00:44:56.117Z,95382.94
2019-02-06T00:47:27.677Z,95378.80
2019-02-06T00:49:59.270Z,95385.30
2019-02-06T00:52:30.806Z,95380.22
2019-02-06T00:55:02.543Z,95370.73
2019-02-06T00:57:34.198Z,95367.30
2019-02-06T01:00:07.632Z,95372.69
2019-02-06T01:02:39.245Z,95373.28
2019-02-06T01:05:12.516Z,95371.75
2019-02-06T01:07:44.205Z,95373.83
2019-02-06T01:10:16.651Z,95369.32
2019-02-06T01:12:48.468Z,95368.84
2019-02-06T01:15:21.063Z,95361.80
2019-02-06T01:17:52.391Z,95371.86
2019-02-06T01:20:23.997Z,95370.16
2019-02-06T01:22:55.437Z,95364.05
2019-02-06T01:25:27.081Z,95370.36
2019-02-06T01:27:58.668Z,95364.34
2019-02-06T01:30:34.143Z,95356.27
2019-02-06T01:33:06.146Z,95356.20
2019-02-06T01:35:49.190Z,95358.27
2019-02-06T01:38:11.355Z,95356.68
2019-02-06T01:40:42.978Z,95354.69
2019-02-06T01:43:14.647Z,95348.44
2019-02-06T01:45:46.359Z,95347.26
2019-02-06T01:48:17.843Z,95350.13
2019-02-06T01:50:49.408Z,95351.34
2019-02-06T01:53:20.819Z,95346.20
2019-02-06T01:55:52.335Z,95340.59
2019-02-06T01:58:23.728Z,95338.77
2019-02-06T02:00:55.063Z,95335.84
2019-02-06T02:03:26.339Z,95338.09
2019-02-06T02:06:02.296Z,95335.34
2019-02-06T02:08:32.790Z,95330.19
2019-02-06T02:11:04.498Z,95325.30
2019-02-06T02:13:35.994Z,95318.29
2019-02-06T02:16:07.449Z,95308.78
2019-02-06T02:18:38.837Z,95301.88
2019-02-06T02:21:10.414Z,95308.28
2019-02-06T02:23:42.140Z,95301.12
2019-02-06T02:26:13.490Z,95295.98
2019-02-06T02:28:44.943Z,95289.17
2019-02-06T02:31:16.528Z,95299.03
2019-02-06T02:33:48.149Z,95305.31
2019-02-06T02:36:19.717Z,95300.86
2019-02-06T02:38:51.297Z,95292.31
2019-02-06T02:41:22.691Z,95294.02
2019-02-06T02:43:54.205Z,95291.31
2019-02-06T02:46:25.965Z,95283.92
2019-02-06T02:48:57.721Z,95277.09
2019-02-06T02:51:29.264Z,95267.23
2019-02-06T02:54:01.042Z,95278.11
2019-02-06T02:56:32.853Z,95279.38
2019-02-06T02:59:04.900Z,95266.67
2019-02-06T03:01:58.287Z,95270.80
2019-02-06T03:04:36.624Z,95264.79
2019-02-06T03:07:08.066Z,95271.80
2019-02-06T03:09:40.044Z,95273.44
2019-02-06T03:12:11.618Z,95269.92
2019-02-06T03:14:43.147Z,95265.49
2019-02-06T03:17:14.799Z,95263.03
2019-02-06T03:19:46.366Z,95261.97
2019-02-06T03:22:18.143Z,95259.69
2019-02-06T03:24:49.730Z,95270.66
2019-02-06T03:27:21.354Z,95275.23
2019-02-06T03:29:52.778Z,95284.45
2019-02-06T03:32:24.474Z,95280.45
2019-02-06T03:34:57.727Z,95276.08
2019-02-06T03:37:29.378Z,95267.55
2019-02-06T03:40:00.607Z,95272.44
2019-02-06T03:42:32.368Z,95278.16
2019-02-06T03:45:04.051Z,95274.32
2019-02-06T03:47:36.040Z,95259.44
2019-02-06T03:50:09.371Z,95249.90
2019-02-06T03:52:40.884Z,95258.85
2019-02-06T03:55:12.987Z,95250.55
2019-02-06T03:57:44.520Z,95256.86
2019-02-06T04:00:17.024Z,95261.31
2019-02-06T04:02:48.578Z,95257.72
2019-02-06T04:05:20.141Z,95262.95
2019-02-06T04:07:51.834Z,95260.41
2019-02-06T04:10:23.379Z,95262.52
2019-02-06T04:12:55.061Z,95278.52
2019-02-06T04:15:26.640Z,95282.30
2019-02-06T04:17:58.182Z,95271.24
2019-02-06T04:20:29.483Z,95272.92
2019-02-06T04:23:00.872Z,95277.03
2019-02-06T04:25:32.216Z,95282.23
2019-02-06T04:28:03.535Z,95284.49
2019-02-06T04:30:34.902Z,95294.73
2019-02-06T04:33:06.186Z,95288.52
2019-02-06T04:35:37.436Z,95293.17
2019-02-06T04:38:09.102Z,95291.84
2019-02-06T04:40:40.403Z,95283.94
2019-02-06T04:43:11.735Z,95285.00
2019-02-06T04:45:43.000Z,95269.68
2019-02-06T04:48:14.246Z,95277.03
2019-02-06T04:50:45.498Z,95271.24
2019-02-06T04:53:16.883Z,95290.13
2019-02-06T04:55:48.124Z,95299.19
2019-02-06T04:58:19.576Z,95306.73
2019-02-06T05:00:51.279Z,95301.89
2019-02-06T05:03:25.705Z,95309.78
2019-02-06T05:05:55.967Z,95313.45
2019-02-06T05:08:27.297Z,95307.09
2019-02-06T05:10:59.515Z,95313.73
2019-02-06T05:13:30.832Z,95309.87
2019-02-06T05:16:02.173Z,95307.80
2019-02-06T05:18:33.766Z,95321.13
2019-02-06T05:21:05.297Z,95312.77
2019-02-06T05:23:36.728Z,95314.56
2019-02-06T05:26:08.273Z,95310.84
2019-02-06T05:28:39.620Z,95308.53
2019-02-06T05:31:11.082Z,95315.19
2019-02-06T05:33:42.300Z,95324.10
2019-02-06T05:36:13.798Z,95326.95
2019-02-06T05:38:45.211Z,95323.75
2019-02-06T05:41:16.560Z,95326.68
2019-02-06T05:43:47.961Z,95334.06
2019-02-06T05:46:19.286Z,95339.65
2019-02-06T05:48:50.699Z,95343.27
2019-02-06T05:51:22.397Z,95341.09
2019-02-06T05:53:53.831Z,95344.90
2019-02-06T05:56:25.834Z,95343.09
2019-02-06T05:58:57.329Z,95353.27
2019-02-06T06:01:28.918Z,95352.48
2019-02-06T06:04:00.469Z,95357.91
2019-02-06T06:06:31.883Z,95357.55
2019-02-06T06:09:04.771Z,95353.89
2019-02-06T06:11:36.734Z,95354.20
2019-02-06T06:14:08.465Z,95361.36
2019-02-06T06:16:39.979Z,95366.84
2019-02-06T06:19:11.499Z,95367.10
2019-02-06T06:21:43.161Z,95371.23
2019-02-06T06:24:14.586Z,95370.39
2019-02-06T06:26:46.471Z,95374.15
2019-02-06T06:29:18.155Z,95371.48
2019-02-06T06:31:49.804Z,95377.87
2019-02-06T06:34:21.304Z,95379.47
2019-02-06T06:36:53.020Z,95374.35
2019-02-06T06:39:26.192Z,95367.19
2019-02-06T06:41:57.475Z,95352.77
2019-02-06T06:44:29.057Z,95357.07
2019-02-06T06:47:00.509Z,95355.98
2019-02-06T06:49:32.064Z,95354.45
2019-02-06T06:52:04.149Z,95353.39
2019-02-06T06:54:35.685Z,95353.55
2019-02-06T06:57:07.381Z,95355.43
2019-02-06T06:59:39.032Z,95358.59
2019-02-06T07:02:10.748Z,95359.03
2019-02-06T07:04:42.626Z,95362.19
2019-02-06T07:07:14.306Z,95357.92
2019-02-06T07:09:45.643Z,95360.39
2019-02-06T07:12:17.200Z,95361.88
2019-02-06T07:14:48.811Z,95364.85
2019-02-06T07:17:20.744Z,95364.64
2019-02-06T07:19:52.289Z,95364.23
2019-02-06T07:22:23.897Z,95358.27
2019-02-06T07:24:55.392Z,95362.20
2019-02-06T07:27:26.700Z,95360.70
2019-02-06T07:29:58.588Z,95353.42
2019-02-06T07:32:30.388Z,95353.69
2019-02-06T07:35:01.901Z,95347.26
2019-02-06T07:37:33.762Z,95361.31
2019-02-06T07:40:06.077Z,95359.35
2019-02-06T07:42:37.725Z,95363.23
2019-02-06T07:45:10.164Z,95364.46
2019-02-06T07:47:42.045Z,95370.95
2019-02-06T07:50:16.704Z,95372.21
2019-02-06T07:52:48.301Z,95368.39
2019-02-06T07:55:20.504Z,95368.16
2019-02-06T07:57:51.964Z,95368.25
2019-02-06T08:00:23.887Z,95374.50
2019-02-06T08:02:55.771Z,95376.41
2019-02-06T08:05:27.513Z,95379.78
2019-02-06T08:07:59.362Z,95383.50
2019-02-06T08:10:32.913Z,95389.06
2019-02-06T08:13:05.272Z,95383.50
2019-02-06T08:15:37.205Z,95385.90
2019-02-06T08:18:09.042Z,95382.98
2019-02-06T08:20:40.917Z,95381.27
2019-02-06T08:23:12.513Z,95389.17
2019-02-06T08:25:44.304Z,95387.53
2019-02-06T08:28:15.685Z,95393.02
2019-02-06T08:30:47.237Z,95393.18
2019-02-06T08:33:18.868Z,95398.19
2019-02-06T08:35:50.199Z,95399.94
2019-02-06T08:38:21.496Z,95397.93
2019-02-06T08:40:52.824Z,95398.05
2019-02-06T08:43:24.122Z,95387.16
2019-02-06T08:45:56.914Z,95403.87
2019-02-06T08:48:28.195Z,95405.75
2019-02-06T08:50:59.461Z,95404.69
2019-02-06T08:53:31.978Z,95404.57
2019-02-06T08:56:03.504Z,95405.42
2019-02-06T08:58:35.210Z,95408.74
2019-02-06T09:01:06.803Z,95407.89
2019-02-06T09:03:38.399Z,95415.41
2019-02-06T09:06:09.972Z,95412.62
2019-02-06T09:08:41.761Z,95419.31
2019-02-06T09:11:13.329Z,95420.23
2019-02-06T09:13:44.865Z,95416.33
2019-02-06T09:16:16.280Z,95410.87
2019-02-06T09:18:47.867Z,95413.73
2019-02-06T09:21:19.267Z,95416.44
2019-02-06T09:23:50.985Z,95418.04
2019-02-06T09:26:22.644Z,95417.92
2019-02-06T09:28:54.342Z,95416.18
2019-02-06T09:31:25.765Z,95421.80
2019-02-06T09:33:57.016Z,95424.85
2019-02-06T09:36:28.287Z,95426.69
2019-02-06T09:39:10.951Z,95432.75
2019-02-06T09:41:34.258Z,95436.55
2019-02-06T09:44:05.990Z,95437.72
2019-02-06T09:46:37.696Z,95432.67
2019-02-06T09:49:09.257Z,95438.54
2019-02-06T09:51:41.069Z,95436.16
2019-02-06T09:54:12.469Z,95435.15
2019-02-06T09:56:44.061Z,95430.54
2019-02-06T09:59:15.783Z,95431.73
2019-02-06T10:01:47.331Z,95424.06
2019-02-06T10:04:18.608Z,95424.86
2019-02-06T10:06:50.261Z,95420.05
2019-02-06T10:09:23.195Z,95430.05
2019-02-06T10:11:54.682Z,95424.97
2019-02-06T10:14:26.099Z,95424.95
2019-02-06T10:16:57.696Z,95430.41
2019-02-06T10:19:29.268Z,95427.45
2019-02-06T10:22:00.865Z,95420.73
2019-02-06T10:24:32.183Z,95421.56
2019-02-06T10:27:03.773Z,95424.23
2019-02-06T10:29:35.639Z,95420.19
2019-02-06T10:32:07.325Z,95418.60
2019-02-06T10:34:38.942Z,95417.66
2019-02-06T10:37:10.600Z,95419.22
2019-02-06T10:39:42.382Z,95415.00
2019-02-06T10:42:14.588Z,95405.18
2019-02-06T10:44:46.188Z,95403.35
2019-02-06T10:47:18.010Z,95405.00
2019-02-06T10:49:49.619Z,95409.92
2019-02-06T10:52:21.311Z,95408.08
2019-02-06T10:54:53.155Z,95408.64
2019-02-06T10:57:24.677Z,95404.80
2019-02-06T10:59:56.204Z,95399.36
2019-02-06T11:02:27.746Z,95398.66
2019-02-06T11:04:59.176Z,95400.66
2019-02-06T11:07:31.114Z,95399.82
2019-02-06T11:10:02.609Z,95401.82
2019-02-06T11:12:35.699Z,95407.48
2019-02-06T11:15:07.957Z,95406.52
2019-02-06T11:17:39.532Z,95415.35
2019-02-06T11:20:14.413Z,95417.33
2019-02-06T11:22:45.857Z,95424.41
2019-02-06T11:25:17.818Z,95420.70
2019-02-06T11:27:49.514Z,95419.27
2019-02-06T11:30:24.802Z,95426.30
2019-02-06T11:32:56.343Z,95419.06
2019-02-06T11:35:27.932Z,95419.52
2019-02-06T11:37:59.481Z,95407.45
2019-02-06T11:40:30.963Z,95391.47
2019-02-06T11:43:02.420Z,95392.44
2019-02-06T11:45:34.711Z,95394.53
2019-02-06T11:48:06.324Z,95403.47
2019-02-06T11:50:43.106Z,95405.16
2019-02-06T11:53:17.041Z,95405.55
2019-02-06T11:55:48.519Z,95392.78
2019-02-06T11:58:20.164Z,95395.37
2019-02-06T12:01:25.227Z,95403.41
2019-02-06T12:03:57.140Z,95405.13
2019-02-06T12:06:28.831Z,95402.08
2019-02-06T12:09:00.142Z,95408.55
2019-02-06T12:11:32.022Z,95400.50
2019-02-06T12:14:03.269Z,95400.72
2019-02-06T12:16:34.852Z,95399.66
2019-02-06T12:19:06.564Z,95394.48
2019-02-06T12:21:38.144Z,95407.06
2019-02-06T12:24:09.710Z,95400.45
2019-02-06T12:26:41.194Z,95400.73
2019-02-06T12:29:12.654Z,95402.63
2019-02-06T12:31:44.137Z,95396.97
2019-02-06T12:34:15.935Z,95397.52
2019-02-06T12:36:47.564Z,95384.97
2019-02-06T12:39:19.182Z,95391.30
2019-02-06T12:41:50.613Z,95386.77
2019-02-06T12:44:22.095Z,95393.06
2019-02-06T12:46:53.410Z,95391.94
2019-02-06T12:49:26.229Z,95389.68
2019-02-06T12:51:57.949Z,95392.59
2019-02-06T12:54:30.552Z,95392.94
2019-02-06T12:57:01.984Z,95404.10
2019-02-06T12:59:33.221Z,95406.27
2019-02-06T13:02:04.774Z,95410.68
2019-02-06T13:04:36.002Z,95405.45
2019-02-06T13:07:07.478Z,95411.05
2019-02-06T13:09:38.969Z,95411.88
2019-02-06T13:12:11.006Z,95419.08
2019-02-06T13:14:42.618Z,95421.46
2019-02-06T13:17:14.110Z,95424.55
2019-02-06T13:19:45.830Z,95422.99
2019-02-06T13:22:17.245Z,95422.25
2019-02-06T13:24:48.957Z,95418.56
2019-02-06T13:27:20.447Z,95426.78
2019-02-06T13:29:51.896Z,95424.59
2019-02-06T13:32:23.641Z,95425.06
2019-02-06T13:34:55.234Z,95425.41
2019-02-06T13:37:26.903Z,95427.53
2019-02-06T13:39:58.585Z,95422.19
2019-02-06T13:42:29.983Z,95420.45
2019-02-06T13:45:01.608Z,95425.33
2019-02-06T13:47:33.269Z,95417.36
2019-02-06T13:50:06.184Z,95423.46
2019-02-06T13:52:38.879Z,95425.19
2019-02-06T13:55:14.378Z,95424.95
2019-02-06T13:57:44.628Z,95425.46
2019-02-06T14:00:19.112Z,95417.51
2019-02-06T14:02:51.084Z,95427.34
2019-02-06T14:05:24.874Z,95439.16
2019-02-06T14:07:58.520Z,95433.20
2019-02-06T14:10:30.648Z,95442.68
2019-02-06T14:13:02.394Z,95448.23
2019-02-06T14:15:36.586Z,95447.92
2019-02-06T14:18:09.300Z,95449.38
2019-02-06T14:20:41.203Z,95449.77
2019-02-06T14:23:21.691Z,95457.55
2019-02-06T14:26:22.876Z,95455.55
2019-02-06T14:29:19.369Z,95447.45
2019-02-06T14:32:46.661Z,95447.77
2019-02-06T14:35:56.086Z,95453.07
2019-02-06T14:38:48.519Z,95455.71
2019-02-06T14:41:43.157Z,95447.12
2019-02-06T14:44:43.585Z,95455.73
2019-02-06T14:47:45.483Z,95453.66
2019-02-06T14:50:34.138Z,95447.30
2019-02-06T14:53:45.460Z,95445.13
2019-02-06T14:56:54.628Z,95444.88
2019-02-06T14:59:50.692Z,95451.30
2019-02-06T15:02:57.766Z,95449.02
2019-02-06T15:06:04.775Z,95449.13
2019-02-06T15:09:27.861Z,95441.57
2019-02-06T15:12:31.588Z,95436.34
2019-02-06T15:15:34.110Z,95432.81
2019-02-06T15:18:50.620Z,95441.14
2019-02-06T15:21:54.434Z,95434.09
2019-02-06T15:24:51.244Z,95424.81
2019-02-06T15:27:44.612Z,95437.27
2019-02-06T15:31:00.312Z,95430.11
2019-02-06T15:34:06.294Z,95428.92
2019-02-06T15:37:21.304Z,95437.36
2019-02-06T15:40:26.799Z,95439.94
2019-02-06T15:43:38.088Z,95441.41
2019-02-06T15:47:04.960Z,95436.08
2019-02-06T15:49:46.802Z,95445.92
2019-02-06T15:53:02.098Z,95435.27
2019-02-06T15:55:59.149Z,95432.89
2019-02-06T15:59:41.949Z,95441.87
2019-02-06T16:02:55.111Z,95439.39
2019-02-06T16:05:58.682Z,95444.90
2019-02-06T16:08:35.461Z,95451.89
2019-02-06T16:11:28.333Z,95449.52
2019-02-06T16:14:38.223Z,95453.73
2019-02-06T16:17:44.839Z,95456.30
2019-02-06T16:20:47.992Z,95456.20
2019-02-06T16:24:02.730Z,95460.33
2019-02-06T16:27:20.113Z,95464.95
2019-02-06T16:30:17.366Z,95469.52
2019-02-06T16:32:58.847Z,95468.86
2019-02-06T16:36:01.354Z,95472.81
2019-02-06T16:39:08.880Z,95480.13
2019-02-06T16:42:06.872Z,95486.77
2019-02-06T16:44:54.128Z,95490.98
2019-02-06T16:47:57.393Z,95488.16
2019-02-06T16:51:18.262Z,95494.78
2019-02-06T16:54:28.118Z,95503.52
2019-02-06T16:57:27.930Z,95502.23
2019-02-06T17:00:28.361Z,95512.79
2019-02-06T17:03:33.441Z,95513.35
2019-02-06T17:06:27.096Z,95516.59
2019-02-06T17:09:37.640Z,95519.16
2019-02-06T17:12:33.306Z,95527.64
2019-02-06T17:15:48.191Z,95527.63
2019-02-06T17:18:49.576Z,95518.17
2019-02-06T17:22:07.692Z,95532.34
2019-02-06T17:25:16.762Z,95535.02
2019-02-06T17:28:31.487Z,95535.94
2019-02-06T17:31:40.550Z,95538.23
2019-02-06T17:34:48.358Z,95542.02
2019-02-06T17:37:53.570Z,95538.58
2019-02-06T17:41:03.746Z,95542.72
2019-02-06T17:43:55.570Z,95544.55
2019-02-06T17:46:56.540Z,95546.67
2019-02-06T17:50:00.402Z,95539.13
2019-02-06T17:52:57.418Z,95553.50
2019-02-06T17:55:29.066Z,95557.26
2019-02-06T17:58:02.994Z,95553.39
2019-02-06T18:01:01.019Z,95554.78
2019-02-06T18:03:39.668Z,95557.17
2019-02-06T18:06:11.211Z,95556.05
2019-02-06T18:08:42.559Z,95563.88
2019-02-06T18:11:13.830Z,95557.63
2019-02-06T18:13:46.470Z,95567.55
2019-02-06T18:16:21.457Z,95560.46
2019-02-06T18:18:51.034Z,95567.28
2019-02-06T18:21:22.461Z,95571.33
2019-02-06T18:23:54.042Z,95576.02
2019-02-06T18:26:25.248Z,95575.02
2019-02-06T18:28:56.743Z,95575.54
2019-02-06T18:31:28.206Z,95574.08
2019-02-06T18:33:59.410Z,95570.14
2019-02-06T18:36:30.929Z,95578.69
2019-02-06T18:39:02.293Z,95577.67
2019-02-06T18:41:35.395Z,95581.92
2019-02-06T18:44:07.132Z,95581.00
2019-02-06T18:46:38.937Z,95582.65
2019-02-06T18:49:10.685Z,95579.71
2019-02-06T18:51:43.684Z,95568.41
2019-02-06T18:54:15.059Z,95588.16
2019-02-06T18:56:46.915Z,95589.84
2019-02-06T18:59:18.421Z,95586.97
2019-02-06T19:01:50.158Z,95593.79
2019-02-06T19:04:22.009Z,95593.13
2019-02-06T19:06:53.550Z,95602.34
2019-02-06T19:09:25.104Z,95601.67
2019-02-06T19:11:56.429Z,95602.33
2019-02-06T19:14:28.014Z,95601.14
2019-02-06T19:16:59.481Z,95600.35
2019-02-06T19:19:31.178Z,95606.52
2019-02-06T19:22:02.882Z,95609.27
2019-02-06T19:24:34.666Z,95608.54
2019-02-06T19:27:06.531Z,95613.88
2019-02-06T19:29:38.044Z,95619.20
2019-02-06T19:32:09.467Z,95616.82
2019-02-06T19:34:41.216Z,95618.30
2019-02-06T19:37:12.958Z,95619.03
2019-02-06T19:39:44.430Z,95622.89
2019-02-06T19:42:16.243Z,95622.12
2019-02-06T19:44:47.617Z,95625.98
2019-02-06T19:47:18.892Z,95626.80
2019-02-06T19:49:50.340Z,95626.08
2019-02-06T19:52:21.857Z,95622.72
2019-02-06T19:54:53.246Z,95620.20
2019-02-06T19:57:26.082Z,95627.02
2019-02-06T19:59:57.726Z,95627.37
2019-02-06T20:02:29.155Z,95631.69
2019-02-06T20:05:01.039Z,95630.49
2019-02-06T20:07:32.643Z,95630.01
2019-02-06T20:10:05.487Z,95629.64
2019-02-06T20:12:37.496Z,95626.28
2019-02-06T20:15:09.725Z,95629.19
2019-02-06T20:17:41.508Z,95624.44
2019-02-06T20:20:15.661Z,95625.70
2019-02-06T20:22:47.908Z,95625.27
2019-02-06T20:25:19.515Z,95631.39
2019-02-06T20:27:51.289Z,95635.44
2019-02-06T20:30:27.066Z,95631.42
2019-02-06T20:32:58.632Z,95638.40
2019-02-06T20:35:30.297Z,95641.98
2019-02-06T20:38:02.230Z,95647.67
2019-02-06T20:40:35.214Z,95648.63
2019-02-06T20:43:07.148Z,95641.86
2019-02-06T20:45:38.587Z,95644.64
2019-02-06T20:48:10.043Z,95646.11
2019-02-06T20:50:41.707Z,95645.66
2019-02-06T20:53:13.045Z,95650.03
2019-02-06T20:55:44.936Z,95652.14
2019-02-06T20:58:16.636Z,95643.11
2019-02-06T21:00:48.308Z,95644.06
2019-02-06T21:03:21.209Z,95641.55
2019-02-06T21:05:52.698Z,95635.49
2019-02-06T21:08:24.154Z,95650.27
2019-02-06T21:10:55.450Z,95646.14
2019-02-06T21:13:33.155Z,95642.25
2019-02-06T21:15:59.736Z,95637.39
2019-02-06T21:18:31.053Z,95627.45
2019-02-06T21:21:02.446Z,95627.20
2019-02-06T21:23:33.764Z,95625.27
2019-02-06T21:26:05.300Z,95628.48
2019-02-06T21:28:36.784Z,95629.89
2019-02-06T21:31:08.256Z,95627.69
2019-02-06T21:33:39.672Z,95629.01
2019-02-06T21:36:10.988Z,95628.55
2019-02-06T21:38:42.509Z,95628.13
2019-02-06T21:41:13.743Z,95630.29
2019-02-06T21:43:45.392Z,95630.51
2019-02-06T21:46:16.791Z,95631.09
2019-02-06T21:48:48.193Z,95634.12
2019-02-06T21:51:20.636Z,95634.85
2019-02-06T21:53:52.187Z,95639.38
2019-02-06T21:56:24.334Z,95634.73
2019-02-06T21:58:55.889Z,95639.69
2019-02-06T22:01:27.639Z,95634.23
2019-02-06T22:03:58.946Z,95636.91
2019-02-06T22:06:30.746Z,95641.13
2019-02-06T22:09:03.445Z,95642.90
2019-02-06T22:11:36.381Z,95635.98
2019-02-06T22:14:07.788Z,95640.22
2019-02-06T22:16:39.272Z,95631.53
2019-02-06T22:19:10.771Z,95636.46
2019-02-06T22:21:42.036Z,95637.62
2019-02-06T22:24:13.586Z,95634.38
2019-02-06T22:26:45.035Z,95629.45
2019-02-06T22:29:16.412Z,95628.47
2019-02-06T22:31:47.832Z,95627.59
2019-02-06T22:34:19.363Z,95629.52
2019-02-06T22:36:50.767Z,95619.77
2019-02-06T22:39:22.250Z,95637.17
2019-02-06T22:41:53.772Z,95639.13
2019-02-06T22:44:25.352Z,95634.97
2019-02-06T22:46:57.205Z,95640.22
2019-02-06T22:49:28.965Z,95637.70
2019-02-06T22:52:00.943Z,95639.63
2019-02-06T22:54:33.330Z,95639.45
2019-02-06T22:57:05.112Z,95636.48
2019-02-06T22:59:36.649Z,95644.75
2019-02-06T23:02:08.559Z,95638.23
2019-02-06T23:04:40.283Z,95637.06
2019-02-06T23:07:11.730Z,95645.33
2019-02-06T23:09:43.017Z,95641.14
2019-02-06T23:12:15.096Z,95637.95
2019-02-06T23:14:46.567Z,95630.73
2019-02-06T23:17:18.418Z,95629.28
2019-02-06T23:19:49.882Z,95625.13
2019-02-06T23:22:21.519Z,95617.20
2019-02-06T23:24:52.951Z,95623.81
2019-02-06T23:27:24.652Z,95620.07
2019-02-06T23:29:56.263Z,95619.28
2019-02-06T23:32:27.868Z,95625.25
2019-02-06T23:34:59.624Z,95622.94
2019-02-06T23:37:31.375Z,95620.70
2019-02-06T23:40:02.951Z,95621.13
2019-02-06T23:42:35.929Z,95622.78
2019-02-06T23:45:08.077Z,95619.59
2019-02-06T23:47:40.769Z,95620.66
2019-02-06T23:50:12.882Z,95621.95
2019-02-06T23:52:45.645Z,95634.47
2019-02-06T23:55:17.527Z,95635.84
2019-02-06T23:57:49.155Z,95628.19
